sensor_id;sensor_type;location;lat;lon;timestamp;pressure;altitude;pressure_sealevel;temperature;humidity
11053;BME280;55230;42.602;23.470;2023-05-16T00:01:07;93253.78;;;13.31;100.00
11053;BME280;55230;42.602;23.470;2023-05-16T00:03:34;93108.97;;;12.28;100.00
11053;BME280;55230;42.602;23.470;2023-05-16T00:06:02;93150.25;;;12.57;100.00
11053;BME280;55230;42.602;23.470;2023-05-16T00:08:29;93293.22;;;13.32;100.00
11053;BME280;55230;42.602;23.470;2023-05-16T00:10:56;93255.78;;;13.16;100.00
11053;BME280;55230;42.602;23.470;2023-05-16T00:13:23;93031.22;;;11.79;100.00
11053;BME280;55230;42.602;23.470;2023-05-16T00:15:50;93261.94;;;13.16;100.00
11053;BME280;55230;42.602;23.470;2023-05-16T00:18:19;93260.75;;;13.03;100.00
11053;BME280;55230;42.602;23.470;2023-05-16T00:20:46;93259.09;;;12.96;100.00
11053;BME280;55230;42.602;23.470;2023-05-16T00:23:13;93282.09;;;13.01;100.00
11053;BME280;55230;42.602;23.470;2023-05-16T00:25:41;93213.94;;;12.88;100.00
11053;BME280;55230;42.602;23.470;2023-05-16T00:28:08;93080.16;;;11.96;100.00
11053;BME280;55230;42.602;23.470;2023-05-16T00:30:35;93069.59;;;11.69;100.00
11053;BME280;55230;42.602;23.470;2023-05-16T00:33:01;93137.94;;;12.27;100.00
11053;BME280;55230;42.602;23.470;2023-05-16T00:35:30;93059.72;;;11.66;100.00
11053;BME280;55230;42.602;23.470;2023-05-16T00:37:57;93198.28;;;12.62;100.00
11053;BME280;55230;42.602;23.470;2023-05-16T00:40:24;93121.63;;;12.22;100.00
11053;BME280;55230;42.602;23.470;2023-05-16T00:42:50;93160.97;;;12.37;100.00
11053;BME280;55230;42.602;23.470;2023-05-16T00:45:17;93069.63;;;11.83;100.00
11053;BME280;55230;42.602;23.470;2023-05-16T00:47:44;93135.34;;;12.47;100.00
11053;BME280;55230;42.602;23.470;2023-05-16T00:50:11;93182.03;;;12.92;100.00
11053;BME280;55230;42.602;23.470;2023-05-16T00:52:39;93250.38;;;13.16;100.00
11053;BME280;55230;42.602;23.470;2023-05-16T00:55:07;93169.56;;;12.79;100.00
11053;BME280;55230;42.602;23.470;2023-05-16T00:57:36;93182.50;;;12.90;100.00
11053;BME280;55230;42.602;23.470;2023-05-16T01:00:04;93228.91;;;13.12;100.00
11053;BME280;55230;42.602;23.470;2023-05-16T01:02:33;93224.94;;;13.28;100.00
11053;BME280;55230;42.602;23.470;2023-05-16T01:05:00;93097.69;;;12.29;100.00
11053;BME280;55230;42.602;23.470;2023-05-16T01:07:29;93208.63;;;12.93;100.00
11053;BME280;55230;42.602;23.470;2023-05-16T01:09:58;93199.59;;;13.11;100.00
11053;BME280;55230;42.602;23.470;2023-05-16T01:12:30;93091.81;;;12.16;100.00
11053;BME280;55230;42.602;23.470;2023-05-16T01:15:04;93230.38;;;13.13;100.00
11053;BME280;55230;42.602;23.470;2023-05-16T01:17:42;93199.22;;;13.18;100.00
11053;BME280;55230;42.602;23.470;2023-05-16T01:20:19;93237.25;;;13.29;100.00
11053;BME280;55230;42.602;23.470;2023-05-16T01:23:03;93211.50;;;13.33;100.00
11053;BME280;55230;42.602;23.470;2023-05-16T01:25:38;93212.78;;;13.38;100.00
11053;BME280;55230;42.602;23.470;2023-05-16T01:28:15;93179.41;;;13.12;100.00
11053;BME280;55230;42.602;23.470;2023-05-16T01:30:42;93191.16;;;13.23;100.00
11053;BME280;55230;42.602;23.470;2023-05-16T01:33:09;92954.59;;;11.77;100.00
11053;BME280;55230;42.602;23.470;2023-05-16T01:35:39;93193.34;;;13.39;100.00
11053;BME280;55230;42.602;23.470;2023-05-16T01:38:13;93146.75;;;13.01;100.00
11053;BME280;55230;42.602;23.470;2023-05-16T01:40:53;93181.25;;;13.35;100.00
11053;BME280;55230;42.602;23.470;2023-05-16T01:43:28;93175.91;;;13.40;100.00
11053;BME280;55230;42.602;23.470;2023-05-16T01:46:00;93156.31;;;13.31;100.00
11053;BME280;55230;42.602;23.470;2023-05-16T01:48:33;93101.81;;;12.89;100.00
11053;BME280;55230;42.602;23.470;2023-05-16T01:51:05;93191.88;;;13.38;100.00
11053;BME280;55230;42.602;23.470;2023-05-16T01:53:36;93170.56;;;13.46;100.00
11053;BME280;55230;42.602;23.470;2023-05-16T01:56:03;93007.00;;;12.28;100.00
11053;BME280;55230;42.602;23.470;2023-05-16T01:58:36;92992.53;;;12.31;100.00
11053;BME280;55230;42.602;23.470;2023-05-16T02:01:04;93148.06;;;13.05;100.00
11053;BME280;55230;42.602;23.470;2023-05-16T02:03:31;93101.38;;;12.61;100.00
11053;BME280;55230;42.602;23.470;2023-05-16T02:05:58;93137.06;;;12.94;100.00
11053;BME280;55230;42.602;23.470;2023-05-16T02:08:27;93147.34;;;12.90;100.00
11053;BME280;55230;42.602;23.470;2023-05-16T02:10:54;93036.28;;;12.01;100.00
11053;BME280;55230;42.602;23.470;2023-05-16T02:13:20;92962.31;;;11.69;100.00
11053;BME280;55230;42.602;23.470;2023-05-16T02:15:49;92916.84;;;11.38;100.00
11053;BME280;55230;42.602;23.470;2023-05-16T02:18:15;93072.88;;;12.45;100.00
11053;BME280;55230;42.602;23.470;2023-05-16T02:20:43;93140.03;;;13.11;100.00
11053;BME280;55230;42.602;23.470;2023-05-16T02:23:10;93151.44;;;13.15;100.00
11053;BME280;55230;42.602;23.470;2023-05-16T02:25:37;93031.75;;;12.41;100.00
11053;BME280;55230;42.602;23.470;2023-05-16T02:28:04;93167.53;;;13.24;100.00
11053;BME280;55230;42.602;23.470;2023-05-16T02:30:31;93075.53;;;12.74;100.00
11053;BME280;55230;42.602;23.470;2023-05-16T02:32:59;93106.00;;;13.04;100.00
11053;BME280;55230;42.602;23.470;2023-05-16T02:35:26;93173.91;;;13.41;100.00
11053;BME280;55230;42.602;23.470;2023-05-16T02:37:52;92993.34;;;12.37;100.00
11053;BME280;55230;42.602;23.470;2023-05-16T02:40:20;93156.50;;;13.27;100.00
11053;BME280;55230;42.602;23.470;2023-05-16T02:42:46;92991.31;;;12.32;100.00
11053;BME280;55230;42.602;23.470;2023-05-16T02:45:13;92924.13;;;11.91;100.00
11053;BME280;55230;42.602;23.470;2023-05-16T02:47:40;93039.38;;;12.43;100.00
11053;BME280;55230;42.602;23.470;2023-05-16T02:50:09;93139.25;;;13.25;100.00
11053;BME280;55230;42.602;23.470;2023-05-16T02:52:36;93149.09;;;13.42;100.00
11053;BME280;55230;42.602;23.470;2023-05-16T02:55:03;93130.28;;;13.19;100.00
11053;BME280;55230;42.602;23.470;2023-05-16T02:57:30;93094.31;;;12.98;100.00
11053;BME280;55230;42.602;23.470;2023-05-16T02:59:57;93145.75;;;13.33;100.00
11053;BME280;55230;42.602;23.470;2023-05-16T03:02:24;93104.13;;;12.96;100.00
11053;BME280;55230;42.602;23.470;2023-05-16T03:04:51;93147.78;;;13.38;100.00
11053;BME280;55230;42.602;23.470;2023-05-16T03:07:19;93018.88;;;12.51;100.00
11053;BME280;55230;42.602;23.470;2023-05-16T03:09:46;93099.16;;;13.09;100.00
11053;BME280;55230;42.602;23.470;2023-05-16T03:12:13;93094.31;;;12.98;100.00
11053;BME280;55230;42.602;23.470;2023-05-16T03:14:40;93134.91;;;13.33;100.00
11053;BME280;55230;42.602;23.470;2023-05-16T03:17:07;93038.81;;;12.53;100.00
11053;BME280;55230;42.602;23.470;2023-05-16T03:19:33;93159.28;;;13.33;100.00
11053;BME280;55230;42.602;23.470;2023-05-16T03:22:00;93088.38;;;12.79;100.00
11053;BME280;55230;42.602;23.470;2023-05-16T03:24:29;92942.72;;;12.03;100.00
11053;BME280;55230;42.602;23.470;2023-05-16T03:26:56;93071.97;;;12.83;100.00
11053;BME280;55230;42.602;23.470;2023-05-16T03:29:24;93148.81;;;13.40;100.00
11053;BME280;55230;42.602;23.470;2023-05-16T03:31:51;93188.41;;;13.38;100.00
11053;BME280;55230;42.602;23.470;2023-05-16T03:34:18;93094.88;;;13.02;100.00
11053;BME280;55230;42.602;23.470;2023-05-16T03:36:46;93169.06;;;13.45;100.00
11053;BME280;55230;42.602;23.470;2023-05-16T03:39:13;93098.59;;;13.05;100.00
11053;BME280;55230;42.602;23.470;2023-05-16T03:41:41;93148.00;;;13.34;100.00
11053;BME280;55230;42.602;23.470;2023-05-16T03:44:08;92990.13;;;12.53;100.00
11053;BME280;55230;42.602;23.470;2023-05-16T03:46:35;93080.41;;;13.05;100.00
11053;BME280;55230;42.602;23.470;2023-05-16T03:49:02;93152.69;;;13.34;100.00
11053;BME280;55230;42.602;23.470;2023-05-16T03:51:29;93159.16;;;13.22;100.00
11053;BME280;55230;42.602;23.470;2023-05-16T03:53:56;93149.50;;;13.35;100.00
11053;BME280;55230;42.602;23.470;2023-05-16T03:56:22;92760.50;;;10.47;100.00
11053;BME280;55230;42.602;23.470;2023-05-16T03:58:51;93101.81;;;12.89;100.00
11053;BME280;55230;42.602;23.470;2023-05-16T04:01:18;92957.63;;;11.99;100.00
11053;BME280;55230;42.602;23.470;2023-05-16T04:03:45;93174.56;;;13.16;100.00
11053;BME280;55230;42.602;23.470;2023-05-16T04:06:12;93086.53;;;12.71;100.00
11053;BME280;55230;42.602;23.470;2023-05-16T04:08:39;93190.25;;;12.97;100.00
11053;BME280;55230;42.602;23.470;2023-05-16T04:11:09;93137.53;;;13.07;100.00
11053;BME280;55230;42.602;23.470;2023-05-16T04:13:36;93140.59;;;13.15;100.00
11053;BME280;55230;42.602;23.470;2023-05-16T04:16:05;93092.91;;;12.68;100.00
11053;BME280;55230;42.602;23.470;2023-05-16T04:18:32;93141.91;;;13.05;100.00
11053;BME280;55230;42.602;23.470;2023-05-16T04:20:59;93181.34;;;13.26;100.00
11053;BME280;55230;42.602;23.470;2023-05-16T04:23:25;93045.38;;;12.47;100.00
11053;BME280;55230;42.602;23.470;2023-05-16T04:25:52;93118.03;;;12.89;100.00
11053;BME280;55230;42.602;23.470;2023-05-16T04:28:19;93139.38;;;13.01;100.00
11053;BME280;55230;42.602;23.470;2023-05-16T04:30:46;93104.41;;;12.98;100.00
11053;BME280;55230;42.602;23.470;2023-05-16T04:33:14;93116.44;;;12.97;100.00
11053;BME280;55230;42.602;23.470;2023-05-16T04:35:42;93128.94;;;13.09;100.00
11053;BME280;55230;42.602;23.470;2023-05-16T04:38:08;93155.34;;;13.14;100.00
11053;BME280;55230;42.602;23.470;2023-05-16T04:40:35;93103.53;;;12.71;100.00
11053;BME280;55230;42.602;23.470;2023-05-16T04:43:02;93094.94;;;12.73;100.00
11053;BME280;55230;42.602;23.470;2023-05-16T04:45:29;92900.84;;;11.64;100.00
11053;BME280;55230;42.602;23.470;2023-05-16T04:47:59;93086.94;;;12.99;100.00
11053;BME280;55230;42.602;23.470;2023-05-16T04:50:27;92975.50;;;12.11;100.00
11053;BME280;55230;42.602;23.470;2023-05-16T04:52:54;93100.75;;;13.01;100.00
11053;BME280;55230;42.602;23.470;2023-05-16T04:55:24;93146.31;;;13.37;100.00
11053;BME280;55230;42.602;23.470;2023-05-16T04:57:51;93147.91;;;13.29;100.00
11053;BME280;55230;42.602;23.470;2023-05-16T05:00:18;93147.00;;;13.52;100.00
11053;BME280;55230;42.602;23.470;2023-05-16T05:02:45;93018.72;;;12.74;100.00
11053;BME280;55230;42.602;23.470;2023-05-16T05:05:12;93168.25;;;13.59;100.00
11053;BME280;55230;42.602;23.470;2023-05-16T05:07:40;93151.59;;;13.66;100.00
11053;BME280;55230;42.602;23.470;2023-05-16T05:10:08;93023.06;;;12.87;100.00
11053;BME280;55230;42.602;23.470;2023-05-16T05:12:36;93149.38;;;13.84;100.00
11053;BME280;55230;42.602;23.470;2023-05-16T05:15:03;93169.78;;;13.80;100.00
11053;BME280;55230;42.602;23.470;2023-05-16T05:17:32;92939.31;;;12.23;100.00
11053;BME280;55230;42.602;23.470;2023-05-16T05:19:58;93174.91;;;13.78;100.00
11053;BME280;55230;42.602;23.470;2023-05-16T05:22:25;93176.75;;;13.86;100.00
11053;BME280;55230;42.602;23.470;2023-05-16T05:24:54;93156.75;;;13.84;100.00
11053;BME280;55230;42.602;23.470;2023-05-16T05:27:20;92958.94;;;12.38;100.00
11053;BME280;55230;42.602;23.470;2023-05-16T05:29:47;93031.44;;;12.89;100.00
11053;BME280;55230;42.602;23.470;2023-05-16T05:32:14;93015.50;;;12.91;100.00
11053;BME280;55230;42.602;23.470;2023-05-16T05:34:41;93096.88;;;13.42;100.00
11053;BME280;55230;42.602;23.470;2023-05-16T05:37:08;93155.25;;;13.83;100.00
11053;BME280;55230;42.602;23.470;2023-05-16T05:39:34;92991.34;;;12.87;100.00
11053;BME280;55230;42.602;23.470;2023-05-16T05:42:03;93102.38;;;13.47;100.00
11053;BME280;55230;42.602;23.470;2023-05-16T05:44:30;93002.38;;;13.04;100.00
11053;BME280;55230;42.602;23.470;2023-05-16T05:46:57;92693.81;;;11.06;100.00
11053;BME280;55230;42.602;23.470;2023-05-16T05:49:25;92936.06;;;12.53;100.00
11053;BME280;55230;42.602;23.470;2023-05-16T05:51:52;93008.88;;;13.12;100.00
11053;BME280;55230;42.602;23.470;2023-05-16T05:54:19;93032.56;;;13.37;100.00
11053;BME280;55230;42.602;23.470;2023-05-16T05:56:46;93139.97;;;13.80;100.00
11053;BME280;55230;42.602;23.470;2023-05-16T05:59:14;93104.19;;;13.56;100.00
11053;BME280;55230;42.602;23.470;2023-05-16T06:01:41;93116.97;;;13.75;100.00
11053;BME280;55230;42.602;23.470;2023-05-16T06:04:09;92937.34;;;12.58;100.00
11053;BME280;55230;42.602;23.470;2023-05-16T06:06:36;93104.38;;;13.72;100.00
11053;BME280;55230;42.602;23.470;2023-05-16T06:09:04;92981.38;;;12.99;100.00
11053;BME280;55230;42.602;23.470;2023-05-16T06:11:31;92775.25;;;11.54;100.00
11053;BME280;55230;42.602;23.470;2023-05-16T06:13:58;93133.75;;;14.00;100.00
11053;BME280;55230;42.602;23.470;2023-05-16T06:16:26;93064.97;;;13.51;100.00
11053;BME280;55230;42.602;23.470;2023-05-16T06:18:53;93136.16;;;13.92;100.00
11053;BME280;55230;42.602;23.470;2023-05-16T06:21:20;93077.03;;;13.70;100.00
11053;BME280;55230;42.602;23.470;2023-05-16T06:23:47;93101.47;;;13.76;100.00
11053;BME280;55230;42.602;23.470;2023-05-16T06:26:13;92988.44;;;13.11;100.00
11053;BME280;55230;42.602;23.470;2023-05-16T06:28:40;93100.72;;;13.75;100.00
11053;BME280;55230;42.602;23.470;2023-05-16T06:31:07;93124.34;;;13.95;100.00
11053;BME280;55230;42.602;23.470;2023-05-16T06:33:36;93076.94;;;13.85;100.00
11053;BME280;55230;42.602;23.470;2023-05-16T06:36:02;93114.00;;;14.19;100.00
11053;BME280;55230;42.602;23.470;2023-05-16T06:38:29;92891.63;;;12.60;100.00
11053;BME280;55230;42.602;23.470;2023-05-16T06:40:56;93046.22;;;13.68;100.00
11053;BME280;55230;42.602;23.470;2023-05-16T06:43:23;93071.63;;;13.96;100.00
11053;BME280;55230;42.602;23.470;2023-05-16T06:45:50;92935.66;;;13.01;100.00
11053;BME280;55230;42.602;23.470;2023-05-16T06:48:17;92939.97;;;12.93;100.00
11053;BME280;55230;42.602;23.470;2023-05-16T06:50:47;93065.88;;;13.88;100.00
11053;BME280;55230;42.602;23.470;2023-05-16T06:53:16;93075.22;;;13.87;100.00
11053;BME280;55230;42.602;23.470;2023-05-16T06:55:43;92910.69;;;12.91;100.00
11053;BME280;55230;42.602;23.470;2023-05-16T06:58:10;93072.44;;;14.02;100.00
11053;BME280;55230;42.602;23.470;2023-05-16T07:00:37;93047.19;;;13.90;100.00
11053;BME280;55230;42.602;23.470;2023-05-16T07:03:04;93007.31;;;13.71;100.00
11053;BME280;55230;42.602;23.470;2023-05-16T07:05:31;93056.22;;;14.08;100.00
11053;BME280;55230;42.602;23.470;2023-05-16T07:07:59;93040.16;;;13.78;100.00
11053;BME280;55230;42.602;23.470;2023-05-16T07:10:26;93115.47;;;14.40;100.00
11053;BME280;55230;42.602;23.470;2023-05-16T07:12:53;92906.91;;;13.03;100.00
11053;BME280;55230;42.602;23.470;2023-05-16T07:15:19;93111.09;;;14.48;100.00
11053;BME280;55230;42.602;23.470;2023-05-16T07:17:49;93031.13;;;14.13;100.00
11053;BME280;55230;42.602;23.470;2023-05-16T07:20:19;92826.31;;;12.67;100.00
11053;BME280;55230;42.602;23.470;2023-05-16T07:22:48;92972.44;;;13.84;100.00
11053;BME280;55230;42.602;23.470;2023-05-16T07:25:16;92858.63;;;13.22;100.00
11053;BME280;55230;42.602;23.470;2023-05-16T07:27:43;93075.28;;;14.75;100.00
11053;BME280;55230;42.602;23.470;2023-05-16T07:30:11;93034.09;;;14.40;100.00
11053;BME280;55230;42.602;23.470;2023-05-16T07:32:38;93052.00;;;14.63;100.00
11053;BME280;55230;42.602;23.470;2023-05-16T07:35:06;93079.75;;;14.78;100.00
11053;BME280;55230;42.602;23.470;2023-05-16T07:37:33;93109.81;;;15.06;100.00
11053;BME280;55230;42.602;23.470;2023-05-16T07:40:00;93084.81;;;14.96;100.00
11053;BME280;55230;42.602;23.470;2023-05-16T07:42:30;92948.50;;;14.08;100.00
11053;BME280;55230;42.602;23.470;2023-05-16T07:44:56;93028.69;;;14.77;100.00
11053;BME280;55230;42.602;23.470;2023-05-16T07:47:23;93030.91;;;14.78;100.00
11053;BME280;55230;42.602;23.470;2023-05-16T07:49:51;93049.63;;;15.13;100.00
11053;BME280;55230;42.602;23.470;2023-05-16T07:52:18;93041.91;;;15.00;100.00
11053;BME280;55230;42.602;23.470;2023-05-16T07:54:45;93043.13;;;14.99;100.00
11053;BME280;55230;42.602;23.470;2023-05-16T07:57:13;93063.97;;;15.19;100.00
11053;BME280;55230;42.602;23.470;2023-05-16T07:59:41;93088.00;;;15.32;100.00
11053;BME280;55230;42.602;23.470;2023-05-16T08:02:09;92982.81;;;14.84;100.00
11053;BME280;55230;42.602;23.470;2023-05-16T08:04:36;93057.19;;;15.40;100.00
11053;BME280;55230;42.602;23.470;2023-05-16T08:07:03;92865.13;;;14.29;100.00
11053;BME280;55230;42.602;23.470;2023-05-16T08:09:30;93007.94;;;15.22;100.00
11053;BME280;55230;42.602;23.470;2023-05-16T08:11:57;92971.13;;;15.21;100.00
11053;BME280;55230;42.602;23.470;2023-05-16T08:14:28;92991.97;;;15.40;97.54
11053;BME280;55230;42.602;23.470;2023-05-16T08:16:57;92992.19;;;15.37;97.64
11053;BME280;55230;42.602;23.470;2023-05-16T08:19:23;92841.78;;;14.42;97.30
11053;BME280;55230;42.602;23.470;2023-05-16T08:21:50;93048.50;;;16.06;95.45
11053;BME280;55230;42.602;23.470;2023-05-16T08:24:17;93044.75;;;15.98;95.31
11053;BME280;55230;42.602;23.470;2023-05-16T08:26:44;93034.34;;;15.80;95.87
11053;BME280;55230;42.602;23.470;2023-05-16T08:29:11;93070.53;;;16.30;95.61
11053;BME280;55230;42.602;23.470;2023-05-16T08:31:38;92858.25;;;14.97;94.75
11053;BME280;55230;42.602;23.470;2023-05-16T08:34:06;93011.16;;;16.01;94.88
11053;BME280;55230;42.602;23.470;2023-05-16T08:36:34;93046.28;;;16.43;94.70
11053;BME280;55230;42.602;23.470;2023-05-16T08:39:02;93045.81;;;16.39;94.79
11053;BME280;55230;42.602;23.470;2023-05-16T08:41:29;93002.75;;;15.99;95.36
11053;BME280;55230;42.602;23.470;2023-05-16T08:43:56;92971.59;;;15.89;94.22
11053;BME280;55230;42.602;23.470;2023-05-16T08:46:24;93004.97;;;16.17;93.84
11053;BME280;55230;42.602;23.470;2023-05-16T08:48:58;92907.66;;;15.13;93.76
11053;BME280;55230;42.602;23.470;2023-05-16T08:51:31;92931.53;;;15.89;92.96
11053;BME280;55230;42.602;23.470;2023-05-16T08:54:02;93035.66;;;16.73;92.03
11053;BME280;55230;42.602;23.470;2023-05-16T08:56:29;93035.16;;;16.91;91.35
11053;BME280;55230;42.602;23.470;2023-05-16T08:58:57;93023.28;;;16.99;90.52
11053;BME280;55230;42.602;23.470;2023-05-16T09:01:24;93024.47;;;17.09;90.68
11053;BME280;55230;42.602;23.470;2023-05-16T09:03:50;93031.13;;;17.14;88.93
11053;BME280;55230;42.602;23.470;2023-05-16T09:06:17;93020.72;;;17.23;89.23
11053;BME280;55230;42.602;23.470;2023-05-16T09:08:45;93030.34;;;17.36;88.14
11053;BME280;55230;42.602;23.470;2023-05-16T09:11:11;93046.19;;;17.43;88.53
11053;BME280;55230;42.602;23.470;2023-05-16T09:13:38;93034.53;;;17.48;88.34
11053;BME280;55230;42.602;23.470;2023-05-16T09:16:08;93031.75;;;17.59;88.65
11053;BME280;55230;42.602;23.470;2023-05-16T09:18:36;93020.31;;;17.66;87.37
11053;BME280;55230;42.602;23.470;2023-05-16T09:21:03;92999.25;;;17.72;86.62
11053;BME280;55230;42.602;23.470;2023-05-16T09:23:30;93031.69;;;17.81;86.02
11053;BME280;55230;42.602;23.470;2023-05-16T09:25:58;93026.25;;;17.70;86.71
11053;BME280;55230;42.602;23.470;2023-05-16T09:28:24;93025.84;;;17.55;87.51
11053;BME280;55230;42.602;23.470;2023-05-16T09:30:51;93029.81;;;17.54;88.71
11053;BME280;55230;42.602;23.470;2023-05-16T09:33:19;93025.84;;;17.44;87.93
11053;BME280;55230;42.602;23.470;2023-05-16T09:35:50;93046.47;;;17.28;89.42
11053;BME280;55230;42.602;23.470;2023-05-16T09:38:19;93038.28;;;17.22;89.99
11053;BME280;55230;42.602;23.470;2023-05-16T09:40:46;93029.66;;;17.13;90.77
11053;BME280;55230;42.602;23.470;2023-05-16T09:43:15;93046.78;;;17.02;91.18
11053;BME280;55230;42.602;23.470;2023-05-16T09:45:44;93042.03;;;17.08;91.99
11053;BME280;55230;42.602;23.470;2023-05-16T09:48:11;93029.91;;;17.15;92.35
11053;BME280;55230;42.602;23.470;2023-05-16T09:50:38;93042.03;;;17.19;92.33
11053;BME280;55230;42.602;23.470;2023-05-16T09:53:06;93037.78;;;17.29;92.50
11053;BME280;55230;42.602;23.470;2023-05-16T09:55:33;93047.91;;;17.40;91.90
11053;BME280;55230;42.602;23.470;2023-05-16T09:58:00;93033.28;;;17.49;91.94
11053;BME280;55230;42.602;23.470;2023-05-16T10:00:29;93037.25;;;17.53;91.11
11053;BME280;55230;42.602;23.470;2023-05-16T10:02:56;93046.13;;;17.59;90.59
11053;BME280;55230;42.602;23.470;2023-05-16T10:05:23;93043.16;;;17.57;90.82
11053;BME280;55230;42.602;23.470;2023-05-16T10:07:50;93039.44;;;17.60;88.75
11053;BME280;55230;42.602;23.470;2023-05-16T10:10:17;93048.34;;;17.66;87.64
11053;BME280;55230;42.602;23.470;2023-05-16T10:12:44;93030.94;;;17.75;88.38
11053;BME280;55230;42.602;23.470;2023-05-16T10:15:11;93041.84;;;17.75;86.19
11053;BME280;55230;42.602;23.470;2023-05-16T10:17:39;93061.22;;;17.71;86.02
11053;BME280;55230;42.602;23.470;2023-05-16T10:20:09;93044.88;;;17.60;87.43
11053;BME280;55230;42.602;23.470;2023-05-16T10:22:38;93038.97;;;17.56;87.43
11053;BME280;55230;42.602;23.470;2023-05-16T10:25:07;93034.28;;;17.46;88.60
11053;BME280;55230;42.602;23.470;2023-05-16T10:27:34;93019.16;;;17.50;89.11
11053;BME280;55230;42.602;23.470;2023-05-16T10:30:01;93011.00;;;17.45;87.64
11053;BME280;55230;42.602;23.470;2023-05-16T10:32:29;93025.63;;;17.47;88.24
11053;BME280;55230;42.602;23.470;2023-05-16T10:34:57;93026.59;;;17.44;86.43
11053;BME280;55230;42.602;23.470;2023-05-16T10:37:27;93018.66;;;17.52;87.59
11053;BME280;55230;42.602;23.470;2023-05-16T10:39:54;93012.66;;;17.59;86.80
11053;BME280;55230;42.602;23.470;2023-05-16T10:42:22;93009.91;;;17.70;87.13
11053;BME280;55230;42.602;23.470;2023-05-16T10:44:48;93001.63;;;17.86;86.98
11053;BME280;55230;42.602;23.470;2023-05-16T10:47:18;92996.31;;;18.05;85.41
11053;BME280;55230;42.602;23.470;2023-05-16T10:49:45;92994.94;;;18.22;85.36
11053;BME280;55230;42.602;23.470;2023-05-16T10:52:13;92978.88;;;18.49;84.52
11053;BME280;55230;42.602;23.470;2023-05-16T10:54:42;92992.41;;;18.65;80.87
11053;BME280;55230;42.602;23.470;2023-05-16T10:57:10;92992.25;;;18.82;79.35
11053;BME280;55230;42.602;23.470;2023-05-16T10:59:42;92970.19;;;18.98;79.57
11053;BME280;55230;42.602;23.470;2023-05-16T11:02:20;92973.06;;;19.11;76.59
11053;BME280;55230;42.602;23.470;2023-05-16T11:04:47;92980.47;;;19.16;77.50
11053;BME280;55230;42.602;23.470;2023-05-16T11:07:17;92981.81;;;19.28;76.33
11053;BME280;55230;42.602;23.470;2023-05-16T11:09:45;92999.13;;;19.36;76.19
11053;BME280;55230;42.602;23.470;2023-05-16T11:12:11;92990.88;;;19.42;77.21
11053;BME280;55230;42.602;23.470;2023-05-16T11:14:40;92995.03;;;19.48;75.47
11053;BME280;55230;42.602;23.470;2023-05-16T11:17:08;93004.19;;;19.32;76.28
11053;BME280;55230;42.602;23.470;2023-05-16T11:19:38;93002.22;;;19.27;75.73
11053;BME280;55230;42.602;23.470;2023-05-16T11:22:06;93001.28;;;19.19;76.69
11053;BME280;55230;42.602;23.470;2023-05-16T11:24:34;92999.81;;;19.18;76.74
11053;BME280;55230;42.602;23.470;2023-05-16T11:27:02;93016.16;;;19.24;77.78
11053;BME280;55230;42.602;23.470;2023-05-16T11:29:30;93004.59;;;19.36;77.82
11053;BME280;55230;42.602;23.470;2023-05-16T11:31:57;93003.81;;;19.41;78.24
11053;BME280;55230;42.602;23.470;2023-05-16T11:34:24;92990.22;;;19.54;76.89
11053;BME280;55230;42.602;23.470;2023-05-16T11:36:50;93009.09;;;19.77;76.25
11053;BME280;55230;42.602;23.470;2023-05-16T11:39:17;93006.06;;;19.99;76.27
11053;BME280;55230;42.602;23.470;2023-05-16T11:41:46;93025.22;;;20.36;75.34
11053;BME280;55230;42.602;23.470;2023-05-16T11:44:12;93006.53;;;20.53;74.70
11053;BME280;55230;42.602;23.470;2023-05-16T11:46:39;93005.78;;;20.97;74.56
11053;BME280;55230;42.602;23.470;2023-05-16T11:49:06;93021.88;;;21.19;71.05
11053;BME280;55230;42.602;23.470;2023-05-16T11:51:33;93018.50;;;21.26;69.70
11053;BME280;55230;42.602;23.470;2023-05-16T11:54:01;93009.22;;;21.42;71.68
11053;BME280;55230;42.602;23.470;2023-05-16T11:56:29;93015.78;;;21.52;70.43
11053;BME280;55230;42.602;23.470;2023-05-16T11:58:57;93001.22;;;21.44;68.31
11053;BME280;55230;42.602;23.470;2023-05-16T12:01:24;92992.34;;;21.38;68.70
11053;BME280;55230;42.602;23.470;2023-05-16T12:03:56;92990.88;;;21.24;69.42
11053;BME280;55230;42.602;23.470;2023-05-16T12:06:23;92991.50;;;21.04;69.70
11053;BME280;55230;42.602;23.470;2023-05-16T12:08:50;92993.59;;;20.98;69.00
11053;BME280;55230;42.602;23.470;2023-05-16T12:11:16;92973.78;;;21.05;70.31
11053;BME280;55230;42.602;23.470;2023-05-16T12:13:43;92973.56;;;21.16;71.06
11053;BME280;55230;42.602;23.470;2023-05-16T12:16:12;92973.56;;;21.16;70.36
11053;BME280;55230;42.602;23.470;2023-05-16T12:18:38;92957.00;;;21.35;72.02
11053;BME280;55230;42.602;23.470;2023-05-16T12:21:05;92959.84;;;21.42;69.86
11053;BME280;55230;42.602;23.470;2023-05-16T12:23:32;92958.56;;;21.43;68.62
11053;BME280;55230;42.602;23.470;2023-05-16T12:25:58;92953.94;;;21.51;69.50
11053;BME280;55230;42.602;23.470;2023-05-16T12:28:29;92960.25;;;21.59;68.47
11053;BME280;55230;42.602;23.470;2023-05-16T12:30:57;92963.22;;;21.61;68.53
11053;BME280;55230;42.602;23.470;2023-05-16T12:33:26;92964.97;;;21.85;65.91
11053;BME280;55230;42.602;23.470;2023-05-16T12:35:52;92966.84;;;21.90;65.90
11053;BME280;55230;42.602;23.470;2023-05-16T12:38:19;92975.03;;;21.83;66.00
11053;BME280;55230;42.602;23.470;2023-05-16T12:40:46;92968.03;;;21.82;66.25
11053;BME280;55230;42.602;23.470;2023-05-16T12:43:13;92964.56;;;21.68;66.94
11053;BME280;55230;42.602;23.470;2023-05-16T12:45:40;92974.38;;;21.76;66.45